Time;durP1;ratioP1;P1;durP2;ratioP2;P2;SDS_P1;SDS_P2;PMS_P1;PMS_P2;Temp;Humidity;BMP_temperature;BMP_pressure;BME280_temperature;BME280_humidity;BME280_pressure;Samples;Min_cycle;Max_cycle;Signal;HPM_P1;HPM_P2
2021/03/11 00:02:23;;;;;;;41.70;22.27;;;6.20;80.90;;;;;;5012669;28;20042;-66
2021/03/11 00:04:49;;;;;;;41.60;20.27;;;6.20;81.10;;;;;;5013800;28;20084;-67
2021/03/11 00:07:15;;;;;;;42.77;22.03;;;6.20;81.20;;;;;;5014128;28;20108;-67
2021/03/11 00:09:41;;;;;;;41.37;21.47;;;6.20;81.40;;;;;;5013399;28;20034;-67
2021/03/11 00:12:08;;;;;;;39.33;21.27;;;6.20;81.50;;;;;;5013360;28;20474;-66
2021/03/11 00:14:36;;;;;;;43.77;22.13;;;6.20;81.80;;;;;;5013959;28;20478;-69
2021/03/11 00:17:05;;;;;;;42.43;22.17;;;6.10;81.90;;;;;;5013491;28;20502;-68
2021/03/11 00:19:33;;;;;;;45.30;22.70;;;6.10;82.40;;;;;;5013877;28;20046;-68
2021/03/11 00:21:59;;;;;;;46.10;23.47;;;6.10;82.50;;;;;;5012591;28;20049;-68
2021/03/11 00:24:25;;;;;;;47.13;24.00;;;6.10;82.80;;;;;;5013665;28;20548;-68
2021/03/11 00:26:50;;;;;;;48.90;24.83;;;6.10;82.90;;;;;;5013762;28;20034;-69
2021/03/11 00:29:16;;;;;;;47.17;23.30;;;6.00;83.20;;;;;;5013188;28;20479;-69
2021/03/11 00:31:43;;;;;;;47.87;24.60;;;6.00;83.70;;;;;;5013022;28;20084;-69
2021/03/11 00:34:08;;;;;;;49.77;24.03;;;6.00;84.00;;;;;;4995751;28;20041;-68
2021/03/11 00:36:34;;;;;;;51.10;24.93;;;6.00;84.40;;;;;;5013465;28;20061;-68
2021/03/11 00:39:00;;;;;;;47.80;24.63;;;6.00;84.50;;;;;;4996204;28;20038;-69
2021/03/11 00:41:25;;;;;;;53.17;25.80;;;6.00;84.90;;;;;;5011892;28;20410;-68
2021/03/11 00:43:51;;;;;;;51.90;26.13;;;5.90;85.10;;;;;;5013337;28;20041;-69
2021/03/11 00:46:18;;;;;;;49.87;25.67;;;5.90;85.50;;;;;;5013230;28;20100;-69
2021/03/11 00:48:43;;;;;;;51.53;25.57;;;5.90;85.80;;;;;;5012207;28;20450;-68
2021/03/11 00:51:09;;;;;;;53.97;26.03;;;5.90;86.00;;;;;;5012650;28;20033;-68
2021/03/11 00:53:35;;;;;;;53.07;26.93;;;5.90;86.40;;;;;;5012643;28;20057;-70
2021/03/11 00:56:00;;;;;;;53.80;26.87;;;5.90;86.90;;;;;;5011839;28;20049;-69
2021/03/11 00:58:26;;;;;;;50.40;25.57;;;5.80;87.30;;;;;;5011439;28;20092;-69
2021/03/11 01:00:52;;;;;;;53.17;26.83;;;5.80;87.90;;;;;;4994305;28;20041;-69
2021/03/11 01:03:30;;;;;;;51.00;23.50;;;5.80;88.40;;;;;;5012997;28;20447;-68
2021/03/11 01:05:59;;;;;;;54.57;27.10;;;5.80;88.80;;;;;;5012671;28;20049;-69
2021/03/11 01:08:40;;;;;;;55.40;27.57;;;5.80;89.40;;;;;;5011707;28;20117;-70
2021/03/11 01:11:05;;;;;;;58.87;27.80;;;5.70;89.70;;;;;;5011866;28;20212;-68
2021/03/11 01:13:31;;;;;;;56.83;28.03;;;5.70;90.10;;;;;;5012641;28;20099;-69
2021/03/11 01:15:57;;;;;;;58.13;28.13;;;5.70;90.30;;;;;;5012292;28;20048;-69
2021/03/11 01:18:24;;;;;;;51.33;25.13;;;5.70;90.50;;;;;;5012818;28;20042;-68
2021/03/11 01:20:49;;;;;;;52.63;26.17;;;5.70;90.90;;;;;;5012197;28;20513;-69
2021/03/11 01:23:15;;;;;;;52.20;26.70;;;5.70;90.80;;;;;;5012010;28;20037;-68
2021/03/11 01:25:40;;;;;;;57.10;27.67;;;5.70;91.00;;;;;;5011387;28;20034;-69
2021/03/11 01:28:06;;;;;;;52.93;26.53;;;5.70;91.10;;;;;;5012164;28;20038;-67
2021/03/11 01:30:32;;;;;;;50.33;25.63;;;5.60;91.20;;;;;;5012103;28;20062;-68
2021/03/11 01:32:57;;;;;;;43.40;21.60;;;5.60;91.50;;;;;;5011955;28;20060;-69
2021/03/11 01:35:23;;;;;;;46.27;23.43;;;5.60;91.60;;;;;;4994494;28;20045;-68
2021/03/11 01:37:48;;;;;;;46.37;24.43;;;5.60;91.70;;;;;;5012277;28;20085;-69
2021/03/11 01:40:14;;;;;;;50.17;24.93;;;5.60;91.80;;;;;;5012088;28;20038;-67
2021/03/11 01:42:40;;;;;;;45.33;23.63;;;5.60;91.80;;;;;;5011274;28;20052;-68
2021/03/11 01:45:07;;;;;;;48.07;24.60;;;5.60;92.00;;;;;;5011103;28;20034;-67
2021/03/11 01:47:33;;;;;;;45.67;23.53;;;5.60;92.00;;;;;;5011589;28;20041;-67
2021/03/11 01:49:59;;;;;;;49.80;24.37;;;5.50;92.10;;;;;;5011766;28;20034;-69
2021/03/11 01:52:25;;;;;;;44.70;22.37;;;5.50;92.30;;;;;;5010297;28;20118;-69
2021/03/11 01:54:51;;;;;;;48.23;23.67;;;5.50;92.40;;;;;;5011542;28;20536;-68
2021/03/11 01:57:18;;;;;;;46.37;23.50;;;5.50;92.50;;;;;;5012073;28;20046;-67
2021/03/11 01:59:44;;;;;;;45.83;23.47;;;5.50;92.50;;;;;;5011245;28;20548;-69
2021/03/11 02:02:10;;;;;;;43.13;22.67;;;5.50;92.60;;;;;;5011579;28;20157;-68
2021/03/11 02:04:36;;;;;;;41.17;21.13;;;5.50;92.70;;;;;;4994588;28;20576;-68
2021/03/11 02:07:02;;;;;;;44.37;22.00;;;5.50;92.80;;;;;;5011276;28;20129;-70
2021/03/11 02:09:27;;;;;;;47.90;23.47;;;5.50;92.90;;;;;;4993610;28;20054;-69
2021/03/11 02:12:16;;;;;;;44.17;22.40;;;5.50;93.00;;;;;;5009358;28;20491;-68
2021/03/11 02:15:02;;;;;;;48.87;24.00;;;5.40;93.10;;;;;;5011804;28;20270;-72
2021/03/11 02:17:34;;;;;;;39.67;20.57;;;5.40;93.10;;;;;;5011442;28;20038;-72
2021/03/11 02:20:37;;;;;;;45.30;22.87;;;5.40;93.20;;;;;;5011643;28;20026;-73
2021/03/11 02:23:40;;;;;;;28.93;13.87;;;5.40;93.30;;;;;;5011304;28;20057;-70
2021/03/11 02:26:24;;;;;;;48.33;23.27;;;5.40;93.40;;;;;;5011099;28;20045;-72
2021/03/11 02:29:09;;;;;;;36.67;17.43;;;5.40;93.40;;;;;;5011422;28;20029;-73
2021/03/11 02:31:36;;;;;;;47.80;23.00;;;5.30;93.40;;;;;;5011095;28;20042;-74
2021/03/11 02:34:33;;;;;;;46.00;23.07;;;5.30;93.50;;;;;;5011549;28;20038;-71
2021/03/11 02:37:04;;;;;;;48.00;23.07;;;5.30;93.60;;;;;;4999292;28;20053;-74
2021/03/11 02:39:32;;;;;;;48.73;22.83;;;5.30;93.70;;;;;;5011298;28;20121;-73
2021/03/11 02:41:59;;;;;;;47.87;23.07;;;5.30;93.80;;;;;;5017006;22;20056;-73
2021/03/11 02:44:25;;;;;;;41.00;19.63;;;5.30;93.90;;;;;;5051516;28;20488;-71
2021/03/11 02:46:53;;;;;;;43.90;21.63;;;5.20;93.90;;;;;;5052191;28;20429;-71
2021/03/11 02:49:22;;;;;;;48.30;23.33;;;5.30;94.10;;;;;;5051355;28;20041;-73
2021/03/11 02:51:49;;;;;;;48.00;23.03;;;5.30;94.10;;;;;;5051656;28;20057;-71
2021/03/11 02:54:16;;;;;;;51.17;22.63;;;5.30;94.10;;;;;;5052199;28;20041;-71
2021/03/11 02:56:43;;;;;;;52.83;25.13;;;5.20;94.20;;;;;;5033109;28;20052;-71
2021/03/11 02:59:10;;;;;;;47.10;21.47;;;5.20;94.20;;;;;;5051906;28;20132;-75
2021/03/11 03:01:38;;;;;;;54.37;24.43;;;5.30;94.50;;;;;;5033184;28;20124;-72
2021/03/11 03:04:05;;;;;;;55.10;25.27;;;5.30;94.30;;;;;;5051759;28;20041;-73
2021/03/11 03:06:32;;;;;;;49.30;24.17;;;5.30;94.30;;;;;;5033537;28;20047;-72
2021/03/11 03:08:59;;;;;;;53.73;25.07;;;5.30;94.30;;;;;;5051219;28;20041;-71
2021/03/11 03:11:25;;;;;;;53.03;26.07;;;5.20;94.30;;;;;;5050698;28;20390;-72
2021/03/11 03:13:52;;;;;;;59.30;26.77;;;5.20;94.40;;;;;;5017059;28;20052;-70
2021/03/11 03:16:18;;;;;;;59.53;26.90;;;5.30;94.50;;;;;;5033833;28;20045;-71
2021/03/11 03:18:45;;;;;;;58.27;25.87;;;5.30;94.60;;;;;;5051197;28;20055;-72
2021/03/11 03:21:12;;;;;;;55.23;26.30;;;5.30;94.70;;;;;;5036327;28;20048;-67
2021/03/11 03:23:41;;;;;;;46.57;21.47;;;5.30;94.70;;;;;;5054673;28;20370;-65
2021/03/11 03:26:07;;;;;;;55.33;26.17;;;5.30;94.70;;;;;;5054000;28;20041;-65
2021/03/11 03:28:33;;;;;;;54.77;23.93;;;5.30;94.80;;;;;;5036725;28;20043;-66
2021/03/11 03:30:59;;;;;;;57.53;26.40;;;5.30;94.80;;;;;;5036139;28;20128;-65
2021/03/11 03:33:25;;;;;;;56.37;26.57;;;5.30;94.90;;;;;;5053847;28;20073;-66
2021/03/11 03:35:51;;;;;;;61.60;27.63;;;5.30;94.90;;;;;;5054378;28;20132;-65
2021/03/11 03:38:17;;;;;;;54.33;26.00;;;5.30;95.00;;;;;;5036227;28;20045;-65
2021/03/11 03:40:43;;;;;;;51.27;25.17;;;5.40;95.00;;;;;;5019207;28;20091;-71
2021/03/11 03:43:19;;;;;;;52.67;25.03;;;5.40;95.10;;;;;;5054028;28;20049;-69
2021/03/11 03:45:52;;;;;;;43.37;21.07;;;5.40;95.10;;;;;;5054099;28;20029;-70
2021/03/11 03:48:22;;;;;;;51.63;24.50;;;5.40;95.10;;;;;;5054179;28;20120;-70
2021/03/11 03:50:48;;;;;;;51.77;24.70;;;5.40;95.10;;;;;;5052771;28;20053;-70
2021/03/11 03:53:20;;;;;;;50.53;24.30;;;5.40;95.20;;;;;;5054127;28;20452;-64
2021/03/11 03:55:52;;;;;;;48.63;23.23;;;5.40;95.20;;;;;;5035710;28;20091;-66
2021/03/11 03:58:19;;;;;;;50.37;24.40;;;5.40;95.20;;;;;;5036982;28;20037;-66
2021/03/11 04:00:47;;;;;;;45.47;22.93;;;5.40;95.20;;;;;;5052850;28;20025;-64
2021/03/11 04:03:13;;;;;;;49.27;23.57;;;5.40;95.30;;;;;;5035868;28;20056;-64
2021/03/11 04:05:39;;;;;;;51.47;24.67;;;5.40;95.30;;;;;;5053560;28;20493;-64
2021/03/11 04:08:06;;;;;;;50.63;24.00;;;5.50;95.40;;;;;;5053424;28;20127;-63
2021/03/11 04:10:33;;;;;;;50.50;23.53;;;5.50;95.40;;;;;;5053431;28;20120;-70
2021/03/11 04:12:59;;;;;;;53.47;24.50;;;5.50;95.40;;;;;;5052866;28;20098;-69
2021/03/11 04:15:24;;;;;;;48.57;24.20;;;5.50;95.50;;;;;;5019319;28;20413;-69
2021/03/11 04:17:51;;;;;;;44.07;21.93;;;5.50;95.50;;;;;;5053500;28;20033;-69
2021/03/11 04:20:16;;;;;;;49.03;22.53;;;5.50;95.50;;;;;;5034889;28;20037;-70
2021/03/11 04:22:43;;;;;;;47.83;23.43;;;5.60;95.60;;;;;;5053044;28;20048;-66
2021/03/11 04:25:09;;;;;;;50.70;23.63;;;5.50;95.60;;;;;;5035160;28;20043;-67
2021/03/11 04:27:36;;;;;;;44.43;21.63;;;5.60;95.60;;;;;;5053415;28;20053;-66
2021/03/11 04:30:03;;;;;;;47.43;23.27;;;5.60;95.70;;;;;;5035976;28;20049;-72
2021/03/11 04:32:29;;;;;;;50.17;23.73;;;5.60;95.70;;;;;;5018742;28;20134;-69
2021/03/11 04:34:55;;;;;;;46.60;23.87;;;5.60;95.60;;;;;;5054170;28;20100;-66
2021/03/11 04:37:20;;;;;;;49.73;24.07;;;5.60;95.60;;;;;;5054481;28;20084;-66
2021/03/11 04:39:46;;;;;;;47.73;23.90;;;5.60;95.60;;;;;;5053869;28;20512;-66
2021/03/11 04:42:12;;;;;;;41.73;21.70;;;5.60;95.60;;;;;;5053896;28;20041;-66
2021/03/11 04:44:39;;;;;;;45.63;22.50;;;5.60;95.70;;;;;;5053879;28;20032;-66
2021/03/11 04:47:04;;;;;;;46.67;23.63;;;5.60;95.70;;;;;;5035886;28;20041;-66
2021/03/11 04:49:31;;;;;;;47.57;23.53;;;5.70;95.70;;;;;;5035271;28;20407;-66
2021/03/11 04:51:59;;;;;;;45.00;22.57;;;5.70;95.70;;;;;;5051831;28;20047;-66
2021/03/11 04:54:25;;;;;;;49.73;24.13;;;5.70;95.80;;;;;;5052948;28;20041;-66
2021/03/11 04:56:51;;;;;;;40.60;22.00;;;5.70;95.80;;;;;;5018033;28;20124;-66
2021/03/11 04:59:17;;;;;;;45.37;23.70;;;5.70;95.80;;;;;;5052689;28;20120;-66
2021/03/11 05:01:48;;;;;;;49.30;23.97;;;5.70;95.70;;;;;;5034020;28;20404;-66
2021/03/11 05:04:15;;;;;;;46.33;23.93;;;5.70;95.70;;;;;;5052370;28;20036;-67
2021/03/11 05:06:41;;;;;;;40.97;21.73;;;5.60;95.80;;;;;;5034741;28;20433;-67
2021/03/11 05:09:06;;;;;;;44.17;23.97;;;5.60;95.80;;;;;;5052063;28;20041;-67
2021/03/11 05:11:32;;;;;;;48.20;24.23;;;5.70;95.90;;;;;;5034145;28;20044;-67
2021/03/11 05:13:58;;;;;;;49.03;24.37;;;5.70;95.90;;;;;;5052528;28;20481;-67
2021/03/11 05:16:24;;;;;;;55.73;25.10;;;5.70;95.90;;;;;;5034085;28;20037;-67
2021/03/11 05:18:49;;;;;;;49.30;23.93;;;5.70;95.90;;;;;;5052313;28;20477;-65
2021/03/11 05:21:15;;;;;;;41.03;20.43;;;5.70;96.00;;;;;;5033529;28;20036;-65
2021/03/11 05:23:41;;;;;;;47.37;23.23;;;5.70;96.00;;;;;;5052199;28;20489;-66
2021/03/11 05:26:06;;;;;;;43.47;22.73;;;5.70;96.00;;;;;;5052357;28;20040;-66
2021/03/11 05:28:32;;;;;;;45.93;23.27;;;5.70;96.00;;;;;;5033963;28;20386;-66
2021/03/11 05:30:58;;;;;;;43.87;22.37;;;5.70;96.00;;;;;;5051551;28;20043;-65
2021/03/11 05:33:24;;;;;;;42.17;21.37;;;5.70;96.10;;;;;;5051933;28;20087;-65
2021/03/11 05:35:50;;;;;;;48.83;23.03;;;5.70;96.30;;;;;;5033865;28;20033;-65
2021/03/11 05:38:15;;;;;;;44.73;22.67;;;5.70;96.10;;;;;;5051990;28;20416;-65
2021/03/11 05:40:41;;;;;;;44.30;23.07;;;5.70;96.10;;;;;;5033537;28;20037;-66
2021/03/11 05:43:08;;;;;;;48.90;23.30;;;5.70;96.10;;;;;;5051805;28;20052;-66
2021/03/11 05:45:34;;;;;;;48.43;23.77;;;5.70;96.20;;;;;;5051756;28;20060;-66
2021/03/11 05:48:01;;;;;;;42.67;21.90;;;5.70;96.20;;;;;;5051317;28;20075;-67
2021/03/11 05:50:27;;;;;;;46.17;21.80;;;5.70;96.20;;;;;;5051458;28;20052;-68
2021/03/11 05:52:55;;;;;;;46.63;22.97;;;5.70;96.20;;;;;;5050985;28;20425;-67
2021/03/11 05:55:21;;;;;;;46.23;23.40;;;5.80;96.30;;;;;;5033829;28;20374;-66
2021/03/11 05:57:47;;;;;;;45.07;22.80;;;5.80;96.30;;;;;;5033699;28;20068;-67
2021/03/11 06:00:16;;;;;;;44.70;22.10;;;5.80;96.30;;;;;;5050874;28;20080;-66
2021/03/11 06:02:54;;;;;;;46.10;22.87;;;5.80;96.30;;;;;;5017256;28;20489;-67
2021/03/11 06:05:21;;;;;;;46.50;22.63;;;5.80;96.30;;;;;;5051401;28;20036;-67
2021/03/11 06:07:48;;;;;;;48.07;22.97;;;5.80;96.40;;;;;;5051372;28;20033;-67
2021/03/11 06:10:17;;;;;;;42.30;21.30;;;5.80;96.50;;;;;;5050694;28;20033;-67
2021/03/11 06:12:47;;;;;;;45.13;21.80;;;5.80;96.50;;;;;;5033245;28;20029;-67
2021/03/11 06:15:22;;;;;;;45.05;23.15;;;5.80;96.40;;;;;;5050969;28;20048;-67
2021/03/11 06:17:49;;;;;;;44.37;21.83;;;5.90;96.50;;;;;;5051326;28;20095;-67
2021/03/11 06:20:15;;;;;;;39.93;21.13;;;5.90;96.50;;;;;;5050956;28;20090;-66
2021/03/11 06:22:41;;;;;;;38.97;22.10;;;5.90;96.50;;;;;;5050656;28;20516;-67
2021/03/11 06:25:08;;;;;;;39.93;21.20;;;5.90;96.50;;;;;;5033651;28;20029;-67
2021/03/11 06:27:34;;;;;;;43.57;21.53;;;5.90;96.50;;;;;;5050640;28;20043;-67
2021/03/11 06:30:00;;;;;;;42.20;21.00;;;5.90;96.50;;;;;;5033045;28;20033;-67
2021/03/11 06:32:27;;;;;;;36.43;19.67;;;5.90;96.50;;;;;;5032672;28;20041;-67
2021/03/11 06:34:52;;;;;;;41.97;20.40;;;6.00;96.60;;;;;;5050595;28;20044;-67
2021/03/11 06:37:44;;;;;;;38.73;21.37;;;6.00;96.60;;;;;;5050993;28;20040;-66
2021/03/11 06:40:24;;;;;;;42.60;21.17;;;6.00;96.60;;;;;;5027840;28;20421;-66
2021/03/11 06:42:51;;;;;;;36.17;19.63;;;6.00;96.60;;;;;;5031644;28;20126;-66
2021/03/11 06:45:20;;;;;;;37.43;21.03;;;6.10;96.70;;;;;;5031548;28;20132;-66
2021/03/11 06:47:49;;;;;;;39.93;21.57;;;6.10;96.70;;;;;;5031825;28;20056;-66
2021/03/11 06:50:16;;;;;;;39.07;20.30;;;6.10;96.70;;;;;;5048975;28;20547;-66
2021/03/11 06:53:00;;;;;;;36.90;20.30;;;6.10;96.80;;;;;;5049968;28;20095;-66
2021/03/11 06:55:26;;;;;;;40.30;21.17;;;6.10;96.80;;;;;;5031332;28;20045;-66
2021/03/11 06:57:51;;;;;;;35.00;19.07;;;6.20;96.80;;;;;;5050061;28;20467;-66
2021/03/11 07:00:22;;;;;;;37.67;20.87;;;6.20;96.80;;;;;;5016417;28;20137;-66
2021/03/11 07:02:49;;;;;;;;;;;6.20;96.80;;;;;;5025274;28;20041;-66
2021/03/11 07:05:15;;;;;;;32.03;17.50;;;6.20;96.80;;;;;;5065881;28;19912;-66
2021/03/11 07:07:41;;;;;;;35.90;19.43;;;6.20;96.80;;;;;;5061699;28;20029;-66
2021/03/11 07:10:07;;;;;;;37.77;19.97;;;6.20;96.80;;;;;;5059723;28;20453;-66
2021/03/11 07:13:01;;;;;;;36.70;20.03;;;6.20;96.80;;;;;;5031884;28;20036;-65
2021/03/11 07:15:29;;;;;;;33.93;19.40;;;6.20;96.80;;;;;;5059524;28;20037;-65
2021/03/11 07:17:56;;;;;;;33.13;17.47;;;6.20;96.90;;;;;;5067752;28;20032;-65
2021/03/11 07:20:23;;;;;;;35.03;18.57;;;6.30;97.00;;;;;;5069743;28;20032;-66
2021/03/11 07:23:10;;;;;;;34.93;19.43;;;6.30;97.00;;;;;;5070327;28;20504;-65
2021/03/11 07:25:37;;;;;;;31.57;17.67;;;6.40;97.10;;;;;;5070067;28;20060;-66
2021/03/11 07:28:05;;;;;;;28.93;16.63;;;6.40;97.10;;;;;;5070374;28;20059;-65
2021/03/11 07:30:46;;;;;;;30.57;15.97;;;6.40;97.10;;;;;;5069621;28;20039;-65
2021/03/11 07:33:14;;;;;;;30.77;17.03;;;6.40;97.10;;;;;;5065197;28;20049;-65
2021/03/11 07:35:40;;;;;;;31.97;16.13;;;6.50;97.10;;;;;;5051529;28;20064;-66
2021/03/11 07:38:07;;;;;;;26.33;15.10;;;6.50;97.10;;;;;;5052651;28;20037;-73
2021/03/11 07:40:33;;;;;;;27.10;16.00;;;6.50;97.10;;;;;;5052185;28;20024;-72
2021/03/11 07:43:00;;;;;;;27.10;15.60;;;6.60;97.20;;;;;;5069630;28;20488;-73
2021/03/11 07:45:26;;;;;;;25.83;14.20;;;6.60;97.30;;;;;;5070445;28;20094;-73
2021/03/11 07:47:53;;;;;;;25.40;14.67;;;6.70;97.30;;;;;;5052419;28;20064;-71
2021/03/11 07:50:19;;;;;;;25.07;15.07;;;6.70;97.30;;;;;;5049743;28;20536;-71
2021/03/11 07:52:45;;;;;;;24.93;14.30;;;6.80;97.40;;;;;;5035709;28;20093;-73
2021/03/11 07:55:12;;;;;;;25.77;14.97;;;6.80;97.40;;;;;;5035381;28;20073;-71
2021/03/11 07:57:43;;;;;;;25.80;13.90;;;6.90;97.50;;;;;;5069408;28;20033;-72
2021/03/11 08:00:12;;;;;;;24.30;13.97;;;7.00;97.50;;;;;;5068191;28;20150;-72
2021/03/11 08:02:44;;;;;;;22.90;13.77;;;7.10;97.50;;;;;;5051497;28;20404;-72
2021/03/11 08:05:11;;;;;;;23.77;13.40;;;7.10;97.50;;;;;;5047535;28;20049;-71
2021/03/11 08:07:37;;;;;;;22.70;13.33;;;7.10;97.40;;;;;;5071448;28;20116;-72
2021/03/11 08:10:19;;;;;;;21.47;12.37;;;7.20;97.40;;;;;;5073074;28;20524;-71
2021/03/11 08:12:45;;;;;;;24.23;14.47;;;7.20;97.40;;;;;;5073706;28;20044;-72
2021/03/11 08:15:16;;;;;;;27.17;14.53;;;7.30;97.50;;;;;;5055762;28;20041;-72
2021/03/11 08:17:44;;;;;;;21.57;13.53;;;7.30;97.50;;;;;;5055665;28;20498;-72
2021/03/11 08:20:19;;;;;;;26.63;14.33;;;7.30;97.40;;;;;;5039149;28;20041;-72
2021/03/11 08:23:00;;;;;;;24.03;14.10;;;7.30;97.40;;;;;;5073143;28;20503;-72
2021/03/11 08:25:32;;;;;;;21.87;13.57;;;7.40;97.40;;;;;;5073592;28;20154;-64
2021/03/11 08:28:02;;;;;;;23.03;14.27;;;7.40;97.40;;;;;;5073023;28;20499;-65
2021/03/11 08:30:40;;;;;;;23.63;14.63;;;7.40;97.40;;;;;;5073462;28;20047;-63
2021/03/11 08:33:13;;;;;;;25.27;15.23;;;7.50;97.40;;;;;;5069186;28;20369;-64
2021/03/11 08:35:41;;;;;;;25.73;14.10;;;7.50;97.50;;;;;;5054120;28;20044;-64
2021/03/11 08:38:22;;;;;;;22.57;13.03;;;7.60;97.50;;;;;;5074887;28;20067;-65
2021/03/11 08:40:59;;;;;;;22.35;13.55;;;7.70;97.50;;;;;;5075673;28;20054;-66
2021/03/11 08:43:37;;;;;;;21.77;12.27;;;7.70;97.50;;;;;;5084507;28;20497;-64
2021/03/11 08:46:10;;;;;;;21.00;12.53;;;7.80;97.60;;;;;;5055467;28;20040;-63
2021/03/11 08:48:54;;;;;;;20.90;12.80;;;7.90;97.60;;;;;;5034741;28;20033;-73
2021/03/11 08:51:20;;;;;;;21.30;12.77;;;7.90;97.50;;;;;;5052986;28;20044;-73
2021/03/11 08:53:51;;;;;;;17.33;11.67;;;8.00;97.50;;;;;;5067132;28;20089;-74
2021/03/11 08:56:17;;;;;;;21.42;12.98;;;8.00;97.50;;;;;;5077372;28;20650;-73
2021/03/11 08:59:02;;;;;;;24.47;13.10;;;8.00;97.40;;;;;;5071577;28;20032;-74
2021/03/11 09:01:41;;;;;;;21.80;12.37;;;8.00;97.40;;;;;;5070265;28;20044;-73
2021/03/11 09:04:32;;;;;;;21.83;13.00;;;8.10;97.50;;;;;;5054360;28;20067;-73
2021/03/11 09:07:05;;;;;;;18.80;11.67;;;8.30;97.70;;;;;;5091606;28;20040;-73
2021/03/11 09:09:32;;;;;;;19.77;12.03;;;8.30;97.50;;;;;;5063954;28;20043;-74
2021/03/11 09:11:59;;;;;;;19.67;11.83;;;8.30;97.20;;;;;;5071859;28;20091;-74
2021/03/11 09:14:26;;;;;;;19.80;12.07;;;8.20;97.10;;;;;;5072951;28;20430;-73
2021/03/11 09:16:59;;;;;;;20.20;12.27;;;8.20;97.30;;;;;;5056096;28;20547;-73
2021/03/11 09:19:25;;;;;;;19.20;11.53;;;8.30;97.40;;;;;;5054507;28;20032;-73
2021/03/11 09:21:51;;;;;;;21.10;12.20;;;8.30;97.40;;;;;;5071633;28;20036;-64
2021/03/11 09:24:18;;;;;;;16.33;10.57;;;8.40;97.50;;;;;;5072266;28;20115;-65
2021/03/11 09:26:44;;;;;;;17.13;10.83;;;8.40;97.50;;;;;;5071990;28;20045;-65
2021/03/11 09:29:11;;;;;;;17.60;9.93;;;8.60;97.50;;;;;;5072084;28;20393;-65
2021/03/11 09:31:39;;;;;;;16.23;10.20;;;8.60;97.40;;;;;;5071787;28;20037;-65
2021/03/11 09:34:05;;;;;;;17.60;10.03;;;8.60;97.30;;;;;;5071580;28;20041;-65
2021/03/11 09:36:31;;;;;;;15.00;10.13;;;8.60;97.30;;;;;;5071407;28;20047;-74
2021/03/11 09:39:06;;;;;;;15.90;9.43;;;8.70;97.50;;;;;;5071748;28;20041;-62
2021/03/11 09:41:33;;;;;;;17.07;10.30;;;8.80;97.40;;;;;;5060979;28;20036;-63
2021/03/11 09:44:03;;;;;;;16.90;10.43;;;8.90;97.40;;;;;;5092045;28;20044;-63
2021/03/11 09:46:29;;;;;;;14.45;8.45;;;9.20;97.90;;;;;;5080976;28;20040;-63
2021/03/11 09:48:57;;;;;;;13.48;7.97;;;9.80;98.80;;;;;;5056064;28;20040;-74
2021/03/11 09:51:23;;;;;;;12.23;7.13;;;10.20;98.50;;;;;;5084881;28;20040;-72
2021/03/11 09:53:51;;;;;;;11.38;6.30;;;11.00;98.90;;;;;;5081641;28;20143;-74
2021/03/11 09:56:38;;;;;;;9.32;4.97;;;12.70;99.90;;;;;;5091712;28;20458;-62
2021/03/11 09:59:09;;;;;;;9.77;4.53;;;15.00;97.00;;;;;;5091490;28;20094;-63
2021/03/11 10:01:43;;;;;;;8.50;4.70;;;15.60;91.00;;;;;;5073462;28;20046;-62
2021/03/11 10:04:17;;;;;;;10.23;5.40;;;15.00;88.70;;;;;;5091417;28;20102;-62
2021/03/11 10:06:56;;;;;;;9.95;5.15;;;14.20;91.40;;;;;;5091658;28;20427;-62
2021/03/11 10:09:25;;;;;;;11.48;5.40;;;13.70;92.70;;;;;;5073037;28;20036;-62
2021/03/11 10:11:53;;;;;;;8.85;5.05;;;13.40;92.90;;;;;;5091283;28;20036;-62
2021/03/11 10:14:21;;;;;;;8.88;4.93;;;13.30;94.50;;;;;;5076744;28;20037;-63
2021/03/11 10:16:50;;;;;;;8.35;4.18;;;14.10;96.40;;;;;;5071247;28;20040;-62
2021/03/11 10:19:18;;;;;;;7.75;4.28;;;15.60;96.30;;;;;;5070539;28;20052;-62
2021/03/11 10:22:03;;;;;;;7.55;4.15;;;16.60;93.90;;;;;;5070619;28;20039;-62
2021/03/11 10:24:52;;;;;;;7.60;4.20;;;16.90;91.10;;;;;;5052778;28;20040;-64
2021/03/11 10:27:23;;;;;;;9.07;4.20;;;16.20;91.20;;;;;;5071140;28;20047;-64
2021/03/11 10:30:08;;;;;;;8.93;4.70;;;15.50;91.50;;;;;;5070123;28;20032;-64
2021/03/11 10:32:35;;;;;;;9.23;4.57;;;14.70;92.50;;;;;;5070387;28;20044;-64
2021/03/11 10:35:02;;;;;;;9.07;4.13;;;14.40;92.80;;;;;;5070751;28;20032;-64
2021/03/11 10:37:33;;;;;;;7.68;4.05;;;14.20;93.90;;;;;;5070539;28;20483;-73
2021/03/11 10:40:05;;;;;;;8.70;4.40;;;14.00;93.90;;;;;;5052248;28;20082;-62
2021/03/11 10:42:49;;;;;;;9.15;4.47;;;13.70;93.70;;;;;;5070150;28;20051;-64
2021/03/11 10:45:19;;;;;;;8.48;4.80;;;13.30;93.60;;;;;;5057516;28;20377;-64
2021/03/11 10:48:00;;;;;;;11.23;4.93;;;12.80;93.50;;;;;;5079652;28;20054;-64
2021/03/11 10:50:26;;;;;;;8.73;4.65;;;12.60;94.90;;;;;;5068901;28;20029;-64
2021/03/11 10:52:55;;;;;;;10.32;4.35;;;12.50;95.40;;;;;;5061687;28;20029;-64
2021/03/11 10:55:38;;;;;;;10.40;4.47;;;12.60;95.60;;;;;;5075683;28;20055;-63
2021/03/11 10:58:05;;;;;;;9.13;4.43;;;12.80;96.30;;;;;;5090687;28;20040;-60
2021/03/11 11:00:36;;;;;;;8.77;4.15;;;13.40;97.60;;;;;;5089835;28;20043;-64
2021/03/11 11:03:03;;;;;;;;;;;13.80;96.60;;;;;;5087429;28;20043;-73
2021/03/11 11:05:30;;;;;;;10.30;4.43;;;13.80;94.90;;;;;;5069988;28;20388;-61
2021/03/11 11:07:57;;;;;;;10.70;4.18;;;13.50;93.90;;;;;;5070242;28;20052;-60
2021/03/11 11:10:26;;;;;;;8.73;3.95;;;13.10;93.70;;;;;;5071619;28;20040;-60
2021/03/11 11:12:52;;;;;;;9.45;3.72;;;12.70;94.10;;;;;;5089725;28;20114;-60
2021/03/11 11:15:18;;;;;;;8.13;3.50;;;12.90;96.10;;;;;;5072169;28;20028;-60
2021/03/11 11:17:44;;;;;;;9.88;3.80;;;13.00;95.90;;;;;;5089696;28;20040;-72
2021/03/11 11:20:13;;;;;;;9.45;3.28;;;13.10;95.80;;;;;;5090062;28;20556;-64
2021/03/11 11:22:39;;;;;;;7.82;3.50;;;13.20;95.60;;;;;;5089724;28;20036;-67
2021/03/11 11:25:06;;;;;;;7.55;3.22;;;13.40;96.20;;;;;;5090244;28;20142;-71
2021/03/11 11:27:32;;;;;;;7.65;3.30;;;13.70;96.60;;;;;;5064526;28;20081;-73
2021/03/11 11:29:58;;;;;;;7.75;3.20;;;13.80;95.70;;;;;;5069312;28;20482;-73
2021/03/11 11:32:23;;;;;;;11.18;2.80;;;13.60;94.30;;;;;;5071503;28;20036;-72
2021/03/11 11:34:50;;;;;;;7.80;2.58;;;13.50;95.50;;;;;;5090148;28;20058;-71
2021/03/11 11:37:17;;;;;;;9.55;2.70;;;13.60;95.70;;;;;;5089681;28;20502;-72
2021/03/11 11:39:44;;;;;;;7.35;2.53;;;13.80;95.90;;;;;;5089076;28;20035;-71
2021/03/11 11:42:11;;;;;;;6.85;2.67;;;13.80;95.70;;;;;;5053364;28;20045;-72
2021/03/11 11:44:39;;;;;;;8.02;2.33;;;13.80;95.00;;;;;;5073963;28;20111;-72
2021/03/11 11:47:05;;;;;;;7.97;2.63;;;13.70;94.70;;;;;;5076393;28;20040;-60
2021/03/11 11:49:31;;;;;;;8.07;2.67;;;13.60;95.10;;;;;;5073256;28;20052;-60
2021/03/11 11:51:57;;;;;;;9.52;2.60;;;13.70;95.20;;;;;;5078440;28;20036;-61
2021/03/11 11:54:23;;;;;;;7.97;2.50;;;13.70;95.70;;;;;;5075057;28;20044;-60
2021/03/11 11:56:49;;;;;;;9.80;2.40;;;13.90;95.90;;;;;;5093569;28;20047;-60
2021/03/11 11:59:15;;;;;;;10.52;2.58;;;14.20;96.20;;;;;;5075593;28;20042;-60
2021/03/11 12:01:40;;;;;;;6.70;2.05;;;14.50;95.70;;;;;;5092925;28;20101;-60
2021/03/11 12:04:06;;;;;;;8.23;2.67;;;14.60;94.80;;;;;;5075653;28;20551;-60
2021/03/11 12:06:32;;;;;;;8.20;2.15;;;14.80;95.70;;;;;;5043626;28;20037;-60
2021/03/11 12:08:58;;;;;;;6.95;2.28;;;15.30;94.80;;;;;;5074544;28;20044;-61
2021/03/11 12:11:23;;;;;;;6.22;2.20;;;15.30;93.50;;;;;;5080046;28;20088;-73
2021/03/11 12:13:49;;;;;;;8.27;2.45;;;15.30;94.00;;;;;;5075018;28;20036;-72
2021/03/11 12:16:15;;;;;;;9.38;2.35;;;15.40;93.50;;;;;;5093375;28;20497;-71
2021/03/11 12:18:41;;;;;;;7.68;2.00;;;15.30;93.00;;;;;;5093340;28;20511;-72
2021/03/11 12:21:07;;;;;;;7.75;2.15;;;15.00;92.10;;;;;;5092705;28;20170;-73
2021/03/11 12:23:32;;;;;;;8.93;2.17;;;14.80;93.30;;;;;;5058423;28;20060;-74
2021/03/11 12:25:59;;;;;;;8.57;2.20;;;14.80;94.10;;;;;;5063406;28;20492;-72
2021/03/11 12:28:27;;;;;;;7.28;2.30;;;14.70;93.30;;;;;;5070155;28;20051;-72
2021/03/11 12:30:53;;;;;;;9.95;2.28;;;14.50;92.50;;;;;;5092728;28;20038;-72
2021/03/11 12:33:19;;;;;;;8.77;2.35;;;14.30;92.60;;;;;;5073726;28;20714;-71
2021/03/11 12:35:46;;;;;;;9.30;2.50;;;14.00;92.70;;;;;;5092823;28;20040;-71
2021/03/11 12:38:13;;;;;;;10.23;2.22;;;13.90;92.60;;;;;;5092990;28;20085;-73
2021/03/11 12:40:39;;;;;;;8.63;2.10;;;13.60;92.30;;;;;;5090097;28;20028;-73
2021/03/11 12:43:06;;;;;;;12.02;2.60;;;13.30;91.70;;;;;;5069670;28;20041;-59
2021/03/11 12:45:32;;;;;;;12.02;2.60;;;12.90;91.10;;;;;;5065839;28;20044;-60
2021/03/11 12:47:57;;;;;;;8.60;2.28;;;12.40;91.30;;;;;;5054983;28;20448;-63
2021/03/11 12:50:23;;;;;;;9.85;2.58;;;12.10;91.50;;;;;;5065428;28;20484;-63